createdAt,value
2023-05-05T03:44:20.197Z,100.00
2023-05-05T03:47:24.723Z,100.00
2023-05-05T03:50:27.622Z,100.00
2023-05-05T03:53:31.356Z,100.00
2023-05-05T03:56:35.652Z,100.00
2023-05-05T03:59:38.540Z,100.00
2023-05-05T04:02:41.879Z,100.00
2023-05-05T04:05:45.234Z,100.00
2023-05-05T04:08:47.932Z,100.00
2023-05-05T04:11:51.140Z,100.00
2023-05-05T04:14:54.833Z,100.00
2023-05-05T04:17:58.134Z,100.00
2023-05-05T04:21:01.434Z,100.00
2023-05-05T04:24:05.189Z,100.00
2023-05-05T04:27:08.151Z,100.00
2023-05-05T04:30:11.725Z,100.00
2023-05-05T04:33:15.067Z,100.00
2023-05-05T04:36:19.168Z,100.00
2023-05-05T04:39:22.742Z,100.00
2023-05-05T04:42:26.550Z,100.00
2023-05-05T04:45:29.200Z,100.00
2023-05-05T04:48:32.234Z,100.00
2023-05-05T04:51:34.972Z,100.00
2023-05-05T04:54:37.922Z,100.00
2023-05-05T04:57:40.793Z,100.00
2023-05-05T05:00:43.903Z,100.00
2023-05-05T05:03:46.912Z,100.00
2023-05-05T05:06:49.764Z,100.00
2023-05-05T05:09:52.260Z,100.00
2023-05-05T05:12:55.232Z,100.00
2023-05-05T05:15:57.989Z,100.00
2023-05-05T05:19:01.788Z,100.00
2023-05-05T05:22:05.580Z,100.00
2023-05-05T05:25:09.373Z,100.00
2023-05-05T05:28:12.600Z,100.00
2023-05-05T05:31:16.090Z,100.00
2023-05-05T05:34:19.022Z,100.00
2023-05-05T05:37:22.109Z,100.00
2023-05-05T05:40:25.444Z,100.00
2023-05-05T05:43:28.373Z,100.00
2023-05-05T05:46:31.184Z,100.00
2023-05-05T05:49:34.521Z,96.84
2023-05-05T05:52:37.301Z,91.04
2023-05-05T05:55:41.096Z,91.81
2023-05-05T05:58:45.227Z,89.32
2023-05-05T06:01:48.113Z,92.21
2023-05-05T06:04:51.114Z,85.04
2023-05-05T06:07:53.763Z,85.65
2023-05-05T06:10:57.085Z,82.90
2023-05-05T06:13:59.736Z,78.78
2023-05-05T06:17:03.076Z,78.45
2023-05-05T06:20:07.172Z,81.62
2023-05-05T06:23:10.714Z,83.13
2023-05-05T06:26:14.329Z,83.91
2023-05-05T06:29:17.378Z,78.66
2023-05-05T06:32:20.453Z,76.39
2023-05-05T06:35:23.396Z,73.44
2023-05-05T06:38:26.121Z,70.87
2023-05-05T06:41:28.971Z,68.96
2023-05-05T06:44:31.541Z,65.51
2023-05-05T06:47:34.556Z,66.53
2023-05-05T06:50:39.656Z,63.50
2023-05-05T06:53:42.772Z,60.29
2023-05-05T06:56:45.451Z,61.91
2023-05-05T06:59:48.252Z,61.47
2023-05-05T07:02:50.854Z,64.05
2023-05-05T07:05:54.998Z,58.36
2023-05-05T07:08:58.088Z,60.80
2023-05-05T07:12:01.997Z,56.35
2023-05-05T07:15:19.156Z,54.52
2023-05-05T07:18:27.011Z,56.64
2023-05-05T07:21:29.739Z,58.26
2023-05-05T07:24:32.654Z,57.65
2023-05-05T07:27:37.293Z,58.49
2023-05-05T07:30:40.343Z,56.52
2023-05-05T07:33:43.731Z,55.65
2023-05-05T07:36:46.643Z,57.71
2023-05-05T07:39:49.262Z,58.46
2023-05-05T07:42:52.285Z,57.40
2023-05-05T07:45:55.379Z,56.70
2023-05-05T07:48:58.192Z,57.07
2023-05-05T07:52:03.959Z,58.86
2023-05-05T07:55:07.523Z,59.31
2023-05-05T07:58:11.198Z,54.77
2023-05-05T08:01:14.250Z,55.10
2023-05-05T08:04:17.257Z,56.29
2023-05-05T08:07:20.300Z,55.42
2023-05-05T08:10:24.312Z,56.65
2023-05-05T08:13:28.538Z,57.20
2023-05-05T08:16:31.682Z,58.90
2023-05-05T08:19:34.178Z,54.57
2023-05-05T08:22:36.993Z,56.80
2023-05-05T08:25:39.657Z,56.12
2023-05-05T08:28:42.713Z,57.65
2023-05-05T08:31:45.550Z,54.66
2023-05-05T08:34:48.281Z,54.47
2023-05-05T08:37:51.783Z,54.01
2023-05-05T08:40:54.846Z,53.81
2023-05-05T08:43:57.614Z,55.47
2023-05-05T08:47:01.234Z,54.88
2023-05-05T08:50:06.017Z,55.44
2023-05-05T08:53:26.516Z,56.14
2023-05-05T08:56:38.830Z,53.43
2023-05-05T08:59:42.658Z,55.56
2023-05-05T09:02:47.297Z,52.69
2023-05-05T09:05:51.138Z,52.45
2023-05-05T09:08:54.257Z,52.54
2023-05-05T09:11:59.902Z,54.59
2023-05-05T09:15:03.958Z,56.52
2023-05-05T09:18:12.151Z,53.13
2023-05-05T09:21:22.895Z,50.40
2023-05-05T09:24:26.762Z,54.64
2023-05-05T09:27:29.500Z,53.31
2023-05-05T09:30:32.498Z,51.98
2023-05-05T09:33:35.202Z,49.22
2023-05-05T09:36:48.933Z,49.26
2023-05-05T09:39:55.551Z,52.04
2023-05-05T09:43:02.923Z,50.88
2023-05-05T09:46:09.843Z,48.02
2023-05-05T09:49:15.904Z,46.79
2023-05-05T09:52:19.075Z,49.83
2023-05-05T09:55:23.594Z,45.61
2023-05-05T09:58:28.270Z,45.22
2023-05-05T10:01:31.379Z,47.26
2023-05-05T10:04:34.478Z,47.83
2023-05-05T10:07:38.583Z,48.53
2023-05-05T10:10:49.501Z,47.64
2023-05-05T10:13:52.516Z,46.12
2023-05-05T10:16:55.710Z,44.34
2023-05-05T10:20:01.175Z,45.27
2023-05-05T10:23:08.232Z,46.68
2023-05-05T10:26:14.117Z,45.27
2023-05-05T10:29:33.637Z,45.00
2023-05-05T10:33:04.129Z,44.39
2023-05-05T10:36:12.497Z,43.22
2023-05-05T10:39:19.788Z,43.23
2023-05-05T10:42:24.230Z,40.92
2023-05-05T10:45:27.496Z,41.22
2023-05-05T10:48:47.057Z,40.22
2023-05-05T10:51:49.681Z,38.25
2023-05-05T10:55:04.746Z,38.23
2023-05-05T10:58:07.363Z,38.38
2023-05-05T11:01:10.403Z,36.50
2023-05-05T11:04:20.331Z,35.79
2023-05-05T11:07:24.133Z,38.99
2023-05-05T11:10:26.850Z,40.59
2023-05-05T11:13:30.565Z,38.35
2023-05-05T11:16:44.404Z,38.80
2023-05-05T11:19:48.461Z,34.76
2023-05-05T11:23:05.469Z,38.84
2023-05-05T11:26:09.297Z,37.80
2023-05-05T11:29:11.977Z,36.88
2023-05-05T11:32:18.222Z,37.11
2023-05-05T11:35:21.084Z,38.61
2023-05-05T11:38:56.485Z,37.50
2023-05-05T11:42:20.252Z,36.57
2023-05-05T11:45:24.918Z,34.71
2023-05-05T11:48:27.664Z,32.69
2023-05-05T11:51:31.580Z,33.01
2023-05-05T11:54:41.614Z,34.76
2023-05-05T11:57:44.446Z,32.91
2023-05-05T12:00:48.096Z,31.45
2023-05-05T12:03:51.299Z,31.49
2023-05-05T12:06:55.416Z,29.02
2023-05-05T12:09:58.468Z,27.09
2023-05-05T12:13:01.145Z,26.37
2023-05-05T12:16:15.377Z,25.00
2023-05-05T12:19:18.320Z,22.74
2023-05-05T12:22:23.885Z,21.81
2023-05-05T12:25:34.832Z,22.40
2023-05-05T12:28:47.949Z,18.95
2023-05-05T12:31:51.148Z,18.50
2023-05-05T12:34:57.406Z,18.45
2023-05-05T12:38:00.283Z,19.42
2023-05-05T12:41:03.288Z,18.06
2023-05-05T12:44:06.675Z,17.43
2023-05-05T12:47:09.896Z,16.90
2023-05-05T12:50:12.580Z,16.04
2023-05-05T12:53:25.721Z,17.43
2023-05-05T12:56:39.816Z,16.75
2023-05-05T12:59:43.331Z,16.61
2023-05-05T13:02:46.160Z,19.35
2023-05-05T13:05:49.220Z,17.70
2023-05-05T13:08:51.890Z,17.00
2023-05-05T13:11:54.972Z,16.81
2023-05-05T13:14:57.582Z,17.54
2023-05-05T13:18:01.611Z,17.25
2023-05-05T13:21:04.643Z,17.25
2023-05-05T13:24:23.466Z,17.48
2023-05-05T13:27:29.016Z,17.14
2023-05-05T13:30:31.877Z,17.62
2023-05-05T13:33:35.044Z,16.48
2023-05-05T13:36:38.805Z,17.23
2023-05-05T13:39:41.556Z,15.03
2023-05-05T13:42:44.498Z,14.41
2023-05-05T13:45:47.334Z,12.74
2023-05-05T13:48:52.500Z,13.40
2023-05-05T13:51:58.722Z,13.89
2023-05-05T13:55:01.861Z,13.98
2023-05-05T13:58:04.613Z,13.64
2023-05-05T14:01:07.711Z,13.69
2023-05-05T14:04:10.777Z,14.61
2023-05-05T14:07:13.388Z,14.85
2023-05-05T14:10:16.360Z,14.79
2023-05-05T14:13:19.336Z,14.94
2023-05-05T14:16:22.252Z,14.11
2023-05-05T14:19:24.929Z,13.20
2023-05-05T14:22:27.765Z,14.31
2023-05-05T14:25:30.481Z,13.07
2023-05-05T14:28:33.438Z,13.21
2023-05-05T14:31:36.739Z,12.03
2023-05-05T14:34:39.774Z,11.49
2023-05-05T14:37:42.339Z,10.97
2023-05-05T14:40:45.297Z,11.28
2023-05-05T14:43:47.904Z,12.49
2023-05-05T14:46:51.282Z,12.11
2023-05-05T14:49:53.944Z,10.91
2023-05-05T14:52:56.792Z,12.04
2023-05-05T14:56:01.309Z,12.32
2023-05-05T14:59:04.181Z,12.72
2023-05-05T15:02:07.062Z,11.35
2023-05-05T15:05:10.676Z,11.78
2023-05-05T15:08:14.608Z,10.46
2023-05-05T15:11:17.456Z,11.35
2023-05-05T15:14:20.230Z,11.51
2023-05-05T15:17:23.217Z,12.79
2023-05-05T15:20:25.998Z,13.00
2023-05-05T15:23:28.887Z,13.62
2023-05-05T15:26:31.915Z,13.54
